Time;durP1;ratioP1;P1;durP2;ratioP2;P2;SDS_P1;SDS_P2;PMS_P1;PMS_P2;Temp;Humidity;BMP_temperature;BMP_pressure;BME280_temperature;BME280_humidity;BME280_pressure;Samples;Min_cycle;Max_cycle;Signal;HPM_P1;HPM_P2
2021/04/15 00:02:03;;;;;;;3.95;1.57;;;;;;;5.71;100.00;100415.08;1733563;81;21175;-44
2021/04/15 00:04:31;;;;;;;1.10;1.05;;;;;;;5.73;100.00;100418.37;1731228;81;21676;-44
2021/04/15 00:06:58;;;;;;;1.10;1.10;;;;;;;5.75;100.00;100416.23;1731321;82;21128;-44
2021/04/15 00:09:26;;;;;;;1.22;1.20;;;;;;;5.76;100.00;100411.93;1731258;81;21124;-45
2021/04/15 00:11:55;;;;;;;0.40;0.40;;;;;;;5.78;100.00;100415.73;1731143;82;21187;-43
2021/04/15 00:14:24;;;;;;;4.37;1.80;;;;;;;5.78;100.00;100410.31;1731191;81;21164;-46
2021/04/15 00:16:51;;;;;;;1.70;1.02;;;;;;;5.80;100.00;100413.05;1732537;82;21172;-44
2021/04/15 00:19:19;;;;;;;0.85;0.85;;;;;;;5.82;100.00;100412.82;1707469;82;21175;-44
2021/04/15 00:21:48;;;;;;;2.30;1.25;;;;;;;5.84;100.00;100411.23;1734593;82;21155;-45
2021/04/15 00:24:16;;;;;;;1.90;1.52;;;;;;;5.84;100.00;100406.62;1734697;81;21579;-44
2021/04/15 00:26:45;;;;;;;3.25;1.57;;;;;;;5.84;100.00;100409.33;1734495;82;21163;-44
2021/04/15 00:29:13;;;;;;;2.77;1.47;;;;;;;5.85;100.00;100408.79;1734743;81;21546;-45
2021/04/15 00:31:44;;;;;;;2.80;1.67;;;;;;;5.84;100.00;100406.62;1734664;82;21156;-43
2021/04/15 00:34:11;;;;;;;1.07;1.05;;;;;;;5.85;100.00;100407.43;1734682;81;21630;-45
2021/04/15 00:36:44;;;;;;;0.50;0.50;;;;;;;5.84;100.00;100409.33;1734588;82;21234;-44
2021/04/15 00:39:13;;;;;;;2.92;2.00;;;;;;;5.84;100.00;100407.16;1734963;81;21132;-44
2021/04/15 00:41:42;;;;;;;1.77;1.67;;;;;;;5.83;100.00;100404.95;1734853;82;21191;-45
2021/04/15 00:44:09;;;;;;;1.17;1.07;;;;;;;5.85;100.00;100400.11;1734694;81;21144;-44
2021/04/15 00:46:51;;;;;;;1.17;0.85;;;;;;;5.86;100.00;100403.64;1707359;82;21148;-44
2021/04/15 00:49:30;;;;;;;2.30;2.17;;;;;;;5.87;100.00;100393.91;1734774;81;21130;-43
2021/04/15 00:52:03;;;;;;;0.37;0.37;;;;;;;5.89;100.00;100390.95;1734501;82;21191;-44
2021/04/15 00:54:41;;;;;;;2.15;1.95;;;;;;;5.91;100.00;100395.06;1734649;81;21179;-45
2021/04/15 00:57:16;;;;;;;2.30;2.08;;;;;;;5.93;100.00;100386.11;1734593;82;21135;-44
2021/04/15 00:59:45;;;;;;;1.05;1.05;;;;;;;5.94;100.00;100384.28;1734763;81;21164;-44
2021/04/15 01:02:14;;;;;;;2.83;2.62;;;;;;;5.95;100.00;100387.27;1734660;82;21177;-45
2021/04/15 01:04:43;;;;;;;1.57;1.47;;;;;;;5.94;100.00;100384.28;1734723;82;21576;-44
2021/04/15 01:07:11;;;;;;;2.27;2.17;;;;;;;5.92;100.00;100383.13;1734633;82;21149;-45
2021/04/15 01:09:40;;;;;;;2.47;1.72;;;;;;;5.92;100.00;100383.67;1734522;82;21538;-44
2021/04/15 01:12:25;;;;;;;1.37;1.32;;;;;;;5.90;100.00;100376.31;1734570;82;21616;-45
2021/04/15 01:15:18;;;;;;;2.42;1.57;;;;;;;5.89;100.00;100374.14;1734854;82;21181;-43
2021/04/15 01:17:52;;;;;;;;;;;;;;;5.88;100.00;100369.77;1727298;82;21147;-45
2021/04/15 01:20:53;;;;;;;1.32;1.22;;;;;;;5.87;100.00;100368.14;1719583;83;20558;-44
2021/04/15 01:23:46;;;;;;;1.25;1.25;;;;;;;5.86;100.00;100367.03;1719394;83;21162;-44
2021/04/15 01:26:34;;;;;;;1.85;1.75;;;;;;;5.86;100.00;100369.23;1719595;83;21624;-43
2021/04/15 01:29:33;;;;;;;0.80;0.80;;;;;;;5.85;100.00;100363.50;1697924;83;21173;-44
2021/04/15 01:32:21;;;;;;;2.25;2.10;;;;;;;5.84;100.00;100365.13;1714478;83;21654;-44
2021/04/15 01:35:08;;;;;;;2.45;2.25;;;;;;;5.79;100.00;100357.73;1698686;83;21193;-44
2021/04/15 01:37:58;;;;;;;1.47;1.37;;;;;;;5.76;100.00;100350.92;1714428;83;21139;-44
2021/04/15 01:40:42;;;;;;;0.60;0.60;;;;;;;5.74;100.00;100356.31;1698621;83;21524;-44
2021/04/15 01:43:20;;;;;;;0.55;0.55;;;;;;;5.72;100.00;100348.95;1664356;83;21183;-44
2021/04/15 01:45:50;;;;;;;2.25;2.08;;;;;;;5.70;100.00;100351.09;1673161;84;21130;-43
2021/04/15 01:48:26;;;;;;;1.42;1.32;;;;;;;5.68;100.00;100354.58;1714642;83;21140;-44
2021/04/15 01:51:14;;;;;;;1.05;1.05;;;;;;;5.65;100.00;100345.59;1672678;84;21161;-45
2021/04/15 01:53:54;;;;;;;1.57;1.47;;;;;;;5.63;100.00;100353.16;1714213;83;21131;-44
2021/04/15 01:56:30;;;;;;;2.05;1.55;;;;;;;5.58;100.00;100350.64;1698596;84;21626;-44
2021/04/15 01:59:05;;;;;;;1.80;1.70;;;;;;;5.54;100.00;100348.16;1714186;83;21206;-44
2021/04/15 02:01:37;;;;;;;0.82;0.57;;;;;;;5.49;100.00;100346.73;1715512;83;21170;-44
2021/04/15 02:04:06;;;;;;;;;;;;;;;5.45;100.00;100347.47;1704547;84;21138;-45
2021/04/15 02:06:35;;;;;;;2.75;2.02;;;;;;;5.41;100.00;100347.13;1758368;81;20609;-44
2021/04/15 02:09:07;;;;;;;1.30;1.30;;;;;;;5.38;100.00;100339.50;1732771;81;21146;-44
2021/04/15 02:11:41;;;;;;;0.50;0.50;;;;;;;5.34;100.00;100339.70;1758416;81;21122;-44
2021/04/15 02:14:11;;;;;;;4.65;1.77;;;;;;;5.31;100.00;100338.85;1758405;81;21153;-44
2021/04/15 02:16:40;;;;;;;0.75;0.75;;;;;;;5.28;100.00;100337.45;1759246;79;21177;-45
2021/04/15 02:19:28;;;;;;;1.65;0.95;;;;;;;5.26;100.00;100338.23;1779392;80;21083;-44
2021/04/15 02:22:16;;;;;;;2.27;2.02;;;;;;;5.22;100.00;100337.10;1779335;80;21214;-45
2021/04/15 02:25:01;;;;;;;0.75;0.75;;;;;;;5.17;100.00;100336.48;1779264;80;21155;-44
2021/04/15 02:27:51;;;;;;;1.67;1.00;;;;;;;5.15;100.00;100337.26;1779432;80;21128;-44
2021/04/15 02:30:47;;;;;;;4.10;3.33;;;;;;;5.11;100.00;100330.68;1779276;80;21139;-44
2021/04/15 02:33:25;;;;;;;0.47;0.47;;;;;;;5.10;100.00;100330.95;1779251;80;21546;-44
2021/04/15 02:35:59;;;;;;;1.37;1.30;;;;;;;5.05;100.00;100335.74;1779373;80;21636;-44
2021/04/15 02:38:54;;;;;;;0.45;0.45;;;;;;;5.02;100.00;100332.17;1779245;80;21143;-44
2021/04/15 02:41:26;;;;;;;1.00;1.00;;;;;;;5.01;100.00;100337.83;1779403;80;21162;-44
2021/04/15 02:44:07;;;;;;;1.12;1.12;;;;;;;5.00;100.00;100332.95;1779324;80;21222;-44
2021/04/15 02:46:51;;;;;;;0.75;0.75;;;;;;;5.02;100.00;100334.04;1887413;76;22441;-45
2021/04/15 02:49:19;;;;;;;1.62;1.52;;;;;;;4.96;100.00;100334.50;1826021;77;21525;-43
2021/04/15 02:51:51;;;;;;;1.82;1.70;;;;;;;4.92;100.00;100334.69;1784605;80;21126;-44
2021/04/15 02:54:38;;;;;;;2.77;1.40;;;;;;;4.90;100.00;100328.18;1784739;80;21159;-45
2021/04/15 02:57:18;;;;;;;1.62;1.50;;;;;;;4.90;100.00;100331.43;1784605;80;21271;-43
2021/04/15 02:59:55;;;;;;;2.40;1.92;;;;;;;4.88;100.00;100330.84;1779852;80;21461;-43
2021/04/15 03:02:28;;;;;;;1.65;1.55;;;;;;;4.87;100.00;100334.60;1771770;80;21120;-44
2021/04/15 03:05:00;;;;;;;1.67;1.57;;;;;;;4.88;100.00;100338.97;1786760;80;21175;-43
2021/04/15 03:07:28;;;;;;;3.90;0.88;;;;;;;4.88;100.00;100332.20;1785406;79;21194;-44
2021/04/15 03:09:58;;;;;;;1.35;1.05;;;;;;;4.90;100.00;100332.78;1768331;81;21142;-44
2021/04/15 03:12:41;;;;;;;1.02;1.02;;;;;;;4.91;100.00;100330.34;1768428;81;21137;-44
2021/04/15 03:15:19;;;;;;;2.77;2.40;;;;;;;4.93;100.00;100329.58;1768429;81;21151;-43
2021/04/15 03:17:50;;;;;;;0.70;0.70;;;;;;;4.94;100.00;100324.44;1768461;80;21142;-43
2021/04/15 03:20:23;;;;;;;2.75;0.95;;;;;;;4.97;100.00;100323.97;1768582;81;21194;-43
2021/04/15 03:22:53;;;;;;;0.70;0.70;;;;;;;5.00;100.00;100327.53;1768721;80;21872;-43
2021/04/15 03:25:21;;;;;;;2.67;1.62;;;;;;;5.04;100.00;100329.20;1700812;81;21174;-44
2021/04/15 03:27:57;;;;;;;2.50;1.67;;;;;;;5.06;100.00;100329.24;1784657;80;21442;-44
2021/04/15 03:30:29;;;;;;;0.20;0.20;;;;;;;5.08;100.00;100328.47;1753570;81;21550;-44
2021/04/15 03:33:12;;;;;;;1.67;1.57;;;;;;;5.12;100.00;100323.40;1784771;80;21003;-44
2021/04/15 03:35:54;;;;;;;0.62;0.62;;;;;;;5.15;100.00;100326.96;1784901;80;21570;-44
2021/04/15 03:38:26;;;;;;;2.67;0.82;;;;;;;5.18;100.00;100324.56;1784966;80;21213;-44
2021/04/15 03:40:59;;;;;;;1.50;1.40;;;;;;;5.22;100.00;100329.48;1784996;80;21711;-44
2021/04/15 03:43:30;;;;;;;0.62;0.62;;;;;;;5.25;100.00;100330.37;1752308;81;21185;-44
2021/04/15 03:46:18;;;;;;;1.75;1.47;;;;;;;5.28;100.00;100336.10;1784607;80;21123;-44
2021/04/15 03:48:53;;;;;;;0.70;0.70;;;;;;;5.32;100.00;100329.67;1753208;81;21127;-44
2021/04/15 03:51:26;;;;;;;1.80;1.47;;;;;;;5.36;100.00;100332.97;1784543;80;21114;-44
2021/04/15 03:54:00;;;;;;;0.62;0.62;;;;;;;5.40;100.00;100337.38;1754893;80;21649;-44
2021/04/15 03:56:33;;;;;;;2.15;2.05;;;;;;;5.44;100.00;100337.17;1784437;80;21213;-43
2021/04/15 03:59:22;;;;;;;0.55;0.55;;;;;;;5.49;100.00;100333.70;1784248;80;21178;-44
2021/04/15 04:01:52;;;;;;;2.35;1.67;;;;;;;5.54;100.00;100344.10;1786215;80;21175;-44
2021/04/15 04:04:33;;;;;;;1.07;1.07;;;;;;;5.60;100.00;100349.86;1786613;80;21128;-44
2021/04/15 04:07:05;;;;;;;3.40;1.60;;;;;;;5.66;100.00;100350.75;1790482;79;21570;-44
2021/04/15 04:09:41;;;;;;;2.50;0.82;;;;;;;5.70;100.00;100347.84;1749651;82;21151;-44
2021/04/15 04:12:11;;;;;;;7.00;2.67;;;;;;;5.74;100.00;100350.34;1752948;81;21238;-44
2021/04/15 04:14:59;;;;;;;3.85;3.15;;;;;;;5.79;100.00;100355.02;1720128;82;21143;-43
2021/04/15 04:17:44;;;;;;;1.98;1.87;;;;;;;5.84;100.00;100348.31;1723982;81;21550;-43
2021/04/15 04:20:16;;;;;;;7.65;2.67;;;;;;;5.90;100.00;100351.36;1749522;82;21404;-44
2021/04/15 04:22:55;;;;;;;1.65;1.55;;;;;;;5.98;100.00;100347.42;1723018;81;21190;-44
2021/04/15 04:25:34;;;;;;;3.58;2.83;;;;;;;6.06;100.00;100352.95;1749448;81;21455;-45
2021/04/15 04:28:28;;;;;;;1.17;1.12;;;;;;;6.17;100.00;100353.38;1753028;81;21136;-43
2021/04/15 04:31:07;;;;;;;1.95;1.57;;;;;;;6.27;100.00;100353.49;1720202;82;21502;-44
2021/04/15 04:33:45;;;;;;;0.85;0.85;;;;;;;6.38;100.00;100353.91;1753079;81;21202;-44
2021/04/15 04:36:13;;;;;;;1.12;1.12;;;;;;;6.51;100.00;100354.05;1749462;82;21566;-44
2021/04/15 04:38:41;;;;;;;1.35;1.25;;;;;;;6.62;100.00;100346.82;1722679;81;21141;-43
2021/04/15 04:41:19;;;;;;;3.47;3.17;;;;;;;6.73;100.00;100345.87;1749516;82;21171;-44
2021/04/15 04:43:54;;;;;;;0.75;0.75;;;;;;;6.85;100.00;100345.72;1751166;81;21186;-44
2021/04/15 04:46:41;;;;;;;2.15;1.92;;;;;;;6.99;100.00;100350.17;1749355;81;21169;-43
2021/04/15 04:49:16;;;;;;;1.62;1.52;;;;;;;7.13;100.00;100354.11;1723369;81;21167;-43
2021/04/15 04:52:05;;;;;;;1.52;1.42;;;;;;;7.27;100.00;100345.80;1723308;82;21151;-44
2021/04/15 04:54:37;;;;;;;0.62;0.62;;;;;;;7.40;100.00;100335.57;1753145;81;21175;-44
2021/04/15 04:57:19;;;;;;;2.20;1.30;;;;;;;7.54;100.00;100334.02;1722779;82;21150;-43
2021/04/15 04:59:52;;;;;;;8.28;1.75;;;;;;;7.68;100.00;100343.36;1753093;81;21529;-44
2021/04/15 05:02:20;;;;;;;1.87;1.27;;;;;;;7.81;100.00;100338.53;1723988;81;21708;-43
2021/04/15 05:04:47;;;;;;;3.95;2.72;;;;;;;7.95;100.00;100342.42;1723591;81;21166;-44
2021/04/15 05:07:22;;;;;;;3.85;1.75;;;;;;;8.07;100.00;100341.66;1752897;81;21561;-45
2021/04/15 05:09:51;;;;;;;2.22;2.12;;;;;;;8.20;100.00;100340.36;1752930;81;21174;-43
2021/04/15 05:12:22;;;;;;;1.35;1.25;;;;;;;8.33;100.00;100341.23;1724091;81;21408;-44
2021/04/15 05:14:53;;;;;;;2.45;1.12;;;;;;;8.46;100.00;100337.77;1753248;81;21142;-44
2021/04/15 05:17:29;;;;;;;0.65;0.62;;;;;;;8.56;100.00;100337.24;1753126;81;21154;-43
2021/04/15 05:20:01;;;;;;;5.03;0.93;;;;;;;8.69;100.00;100337.81;1752891;81;21139;-43
2021/04/15 05:22:37;;;;;;;5.03;2.58;;;;;;;8.80;100.00;100334.84;1722664;81;21171;-44
2021/04/15 05:25:09;;;;;;;2.08;1.25;;;;;;;8.95;100.00;100332.69;1752884;81;21174;-44
2021/04/15 05:27:37;;;;;;;3.80;1.02;;;;;;;9.11;100.00;100334.86;1762338;80;21473;-44
2021/04/15 05:30:24;;;;;;;2.42;1.42;;;;;;;9.25;99.79;100338.68;1762106;80;21162;-44
2021/04/15 05:32:51;;;;;;;1.85;1.75;;;;;;;9.39;99.16;100333.47;1754373;80;21126;-43
2021/04/15 05:35:23;;;;;;;1.72;1.62;;;;;;;9.50;98.07;100344.40;1781594;79;21130;-44
2021/04/15 05:37:52;;;;;;;1.20;1.20;;;;;;;9.58;97.12;100347.38;1781786;79;21144;-44
2021/04/15 05:40:20;;;;;;;3.37;1.70;;;;;;;9.65;96.33;100343.01;1755816;80;21587;-44
2021/04/15 05:42:53;;;;;;;2.62;2.17;;;;;;;9.73;95.76;100347.08;1751708;80;21724;-44
2021/04/15 05:45:23;;;;;;;1.15;0.88;;;;;;;9.80;95.12;100344.33;1723687;80;21103;-46
2021/04/15 05:47:59;;;;;;;3.05;1.07;;;;;;;9.90;94.70;100342.13;1790063;80;21150;-44
2021/04/15 05:50:48;;;;;;;2.75;1.95;;;;;;;10.03;94.43;100346.98;1766967;80;21155;-45
2021/04/15 05:53:22;;;;;;;0.95;0.95;;;;;;;10.19;94.04;100336.84;1759019;81;21463;-45
2021/04/15 05:55:54;;;;;;;2.85;2.12;;;;;;;10.34;93.41;100335.98;1788925;80;21178;-45
2021/04/15 05:58:38;;;;;;;1.57;1.47;;;;;;;10.45;92.59;100340.28;1761739;80;21146;-43
2021/04/15 06:01:13;;;;;;;1.15;0.80;;;;;;;10.59;92.31;100325.47;1801846;78;21148;-43
2021/04/15 06:04:09;;;;;;;1.60;1.30;;;;;;;10.72;91.62;100331.66;1755369;81;21137;-43
2021/04/15 06:06:38;;;;;;;1.98;1.87;;;;;;;10.87;90.49;100334.03;1708298;81;21196;-43
2021/04/15 06:09:07;;;;;;;4.55;1.85;;;;;;;10.98;89.34;100334.23;1790273;80;21087;-43
2021/04/15 06:11:55;;;;;;;1.65;1.55;;;;;;;11.02;88.24;100331.18;1791236;78;21103;-44
2021/04/15 06:14:40;;;;;;;2.37;1.70;;;;;;;11.06;87.72;100337.72;1735896;81;21558;-44
2021/04/15 06:17:28;;;;;;;3.85;2.30;;;;;;;11.13;87.17;100338.22;1733938;81;21197;-43
2021/04/15 06:20:18;;;;;;;1.30;0.98;;;;;;;11.16;86.75;100343.11;1762020;81;21158;-44
2021/04/15 06:22:50;;;;;;;1.20;0.80;;;;;;;11.10;85.77;100339.32;1762133;80;21148;-44
2021/04/15 06:25:28;;;;;;;1.62;1.52;;;;;;;11.04;85.70;100334.45;1791757;78;21526;-43
2021/04/15 06:27:59;;;;;;;1.27;0.70;;;;;;;10.99;85.45;100331.75;1817364;78;21142;-44
2021/04/15 06:30:35;;;;;;;0.93;0.75;;;;;;;10.97;85.72;100334.77;1790005;80;21477;-44
2021/04/15 06:33:12;;;;;;;4.78;1.98;;;;;;;11.01;85.66;100337.77;1790405;80;21105;-43
2021/04/15 06:35:45;;;;;;;1.77;1.67;;;;;;;11.03;85.47;100336.09;1761985;81;21141;-44
2021/04/15 06:38:20;;;;;;;1.75;1.10;;;;;;;11.01;85.02;100333.66;1735646;81;21106;-44
2021/04/15 06:41:27;;;;;;;1.15;1.05;;;;;;;10.95;84.81;100337.52;1763792;80;21197;-44
2021/04/15 06:44:43;;;;;;;4.78;1.82;;;;;;;10.91;85.12;100335.11;1746786;80;21231;-45
2021/04/15 06:47:34;;;;;;;2.58;1.90;;;;;;;10.91;85.05;100342.75;1739256;81;21127;-44
2021/04/15 06:50:32;;;;;;;0.53;0.53;;;;;;;10.96;84.89;100343.27;1751092;81;21154;-43
2021/04/15 06:53:23;;;;;;;1.90;1.52;;;;;;;11.00;84.84;100340.77;1745894;81;21135;-44
2021/04/15 06:56:25;;;;;;;2.27;1.60;;;;;;;11.04;84.77;100340.48;1754818;80;21218;-44
2021/04/15 06:59:09;;;;;;;2.40;2.17;;;;;;;11.05;84.83;100336.07;1769595;80;21767;-43
2021/04/15 07:01:57;;;;;;;3.12;2.67;;;;;;;11.06;84.70;100343.19;1782121;80;21166;-45
2021/04/15 07:04:28;;;;;;;0.90;0.78;;;;;;;11.06;84.44;100344.55;1767379;80;21174;-44
2021/04/15 07:07:21;;;;;;;2.52;2.33;;;;;;;11.06;84.31;100352.76;1783845;80;21155;-42
2021/04/15 07:10:14;;;;;;;0.70;0.70;;;;;;;11.08;84.91;100349.20;1783824;80;21566;-44
2021/04/15 07:13:19;;;;;;;;;;;;;;;11.25;85.12;100349.32;1786561;80;21537;-44
2021/04/15 07:16:16;;;;;;;2.37;2.15;;;;;;;11.49;84.45;100350.77;1783969;80;20254;-44
2021/04/15 07:19:16;;;;;;;1.42;1.42;;;;;;;11.68;83.67;100345.39;1784134;79;21574;-43
2021/04/15 07:22:22;;;;;;;3.60;1.82;;;;;;;11.82;82.68;100343.05;1782916;79;21170;-43
2021/04/15 07:25:23;;;;;;;1.47;1.25;;;;;;;11.87;79.43;100344.11;1750960;81;21129;-44
2021/04/15 07:28:28;;;;;;;1.40;0.85;;;;;;;11.77;79.42;100340.89;1753133;81;20995;-43
2021/04/15 07:31:20;;;;;;;1.35;1.25;;;;;;;11.83;79.84;100337.82;1752795;81;21181;-44
2021/04/15 07:34:11;;;;;;;1.82;1.70;;;;;;;12.01;79.33;100333.53;1752964;81;21206;-44
2021/04/15 07:37:18;;;;;;;1.10;1.10;;;;;;;12.14;77.90;100338.05;1786209;78;21131;-45
2021/04/15 07:40:14;;;;;;;1.22;1.12;;;;;;;12.20;76.53;100332.78;1766813;80;21143;-44
2021/04/15 07:42:59;;;;;;;2.20;1.37;;;;;;;12.09;75.17;100332.11;1786538;80;21092;-44
2021/04/15 07:45:59;;;;;;;0.88;0.88;;;;;;;11.89;74.91;100329.02;1786558;80;21183;-44
2021/04/15 07:48:49;;;;;;;4.58;0.45;;;;;;;11.70;75.57;100333.05;1789925;79;21171;-44
2021/04/15 07:51:40;;;;;;;3.87;2.58;;;;;;;11.61;75.51;100328.73;1798242;78;21126;-44
2021/04/15 07:54:29;;;;;;;1.60;1.37;;;;;;;11.63;76.32;100325.72;1816998;78;21095;-44
2021/04/15 07:57:50;;;;;;;1.60;1.20;;;;;;;11.67;76.58;100334.16;1809438;78;21119;-44
2021/04/15 08:00:29;;;;;;;5.75;3.62;;;;;;;11.75;77.18;100336.28;1789818;80;21419;-44
2021/04/15 08:03:44;;;;;;;2.33;2.12;;;;;;;11.96;77.16;100326.75;1789865;78;21188;-44
2021/04/15 08:06:55;;;;;;;14.50;8.25;;;;;;;12.23;76.96;100334.93;1789837;80;22337;-43
2021/04/15 08:09:50;;;;;;;2.17;1.97;;;;;;;12.51;76.10;100328.27;1788689;78;21095;-43
2021/04/15 08:12:41;;;;;;;1.67;1.12;;;;;;;12.78;75.41;100322.92;1793625;78;21149;-44
2021/04/15 08:15:39;;;;;;;0.33;0.33;;;;;;;13.01;73.68;100321.78;1772125;80;21129;-43
2021/04/15 08:18:29;;;;;;;0.40;0.40;;;;;;;13.09;72.25;100316.98;1789767;80;21478;-44
2021/04/15 08:21:42;;;;;;;2.30;1.25;;;;;;;13.09;71.66;100312.87;1789714;80;21138;-42
2021/04/15 08:24:37;;;;;;;2.83;1.80;;;;;;;13.01;71.16;100311.63;1758581;81;21185;-43
2021/04/15 08:27:46;;;;;;;3.83;2.58;;;;;;;13.01;71.29;100305.33;1801488;78;21404;-44
2021/04/15 08:30:32;;;;;;;3.80;3.30;;;;;;;13.10;71.37;100309.00;1775478;79;21736;-43
2021/04/15 08:33:27;;;;;;;9.98;6.35;;;;;;;13.24;70.36;100309.86;1789845;79;21142;-44
2021/04/15 08:36:23;;;;;;;4.55;4.12;;;;;;;13.38;70.32;100311.84;1767893;80;21182;-44
2021/04/15 08:39:17;;;;;;;2.70;1.42;;;;;;;13.64;70.34;100306.72;1728562;81;21127;-43
2021/04/15 08:42:21;;;;;;;;;;;;;;;14.05;68.91;100310.06;1753071;81;21162;-44
2021/04/15 08:45:40;;;;;;;9.13;5.28;;;;;;;14.40;68.27;100306.54;1781487;78;20325;-44
2021/04/15 08:48:54;;;;;;;4.67;2.55;;;;;;;14.74;66.99;100305.84;1758551;81;21154;-45
2021/04/15 08:52:08;;;;;;;0.35;0.35;;;;;;;14.95;64.21;100306.96;1735845;80;21522;-44
2021/04/15 08:55:16;;;;;;;4.47;1.57;;;;;;;14.92;62.66;100303.47;1778400;80;21159;-43
2021/04/15 08:58:05;;;;;;;2.95;1.25;;;;;;;14.78;62.67;100306.83;1789928;80;21142;-44
2021/04/15 09:01:06;;;;;;;4.60;1.65;;;;;;;14.80;61.52;100310.08;1782523;80;21134;-43
2021/04/15 09:03:54;;;;;;;0.62;0.62;;;;;;;14.83;60.48;100304.76;1789882;80;21142;-43
2021/04/15 09:06:51;;;;;;;3.42;1.82;;;;;;;14.92;59.84;100304.84;1789867;80;21464;-44
2021/04/15 09:09:23;;;;;;;0.93;0.93;;;;;;;14.97;59.22;100305.28;1789900;80;21106;-43
2021/04/15 09:12:19;;;;;;;0.53;0.47;;;;;;;15.03;59.69;100296.60;1790027;80;21114;-43
2021/04/15 09:15:22;;;;;;;0.10;0.10;;;;;;;15.12;59.67;100303.53;1788373;80;21430;-43
2021/04/15 09:18:04;;;;;;;0.53;0.30;;;;;;;15.24;58.59;100300.21;1783885;80;21128;-43
2021/04/15 09:20:40;;;;;;;1.00;0.75;;;;;;;15.29;58.65;100304.20;1789923;80;21124;-44
2021/04/15 09:23:48;;;;;;;1.42;0.85;;;;;;;15.27;57.94;100302.33;1789860;80;21176;-43
2021/04/15 09:26:30;;;;;;;1.35;0.70;;;;;;;15.19;58.03;100301.72;1801935;78;21123;-43
2021/04/15 09:29:25;;;;;;;5.60;1.10;;;;;;;15.05;59.96;100297.08;1839263;76;22644;-44
2021/04/15 09:32:04;;;;;;;3.08;0.80;;;;;;;15.03;60.46;100300.73;1803974;79;21878;-44
2021/04/15 09:34:48;;;;;;;2.25;0.85;;;;;;;15.05;59.43;100294.89;1785482;78;21137;-43
2021/04/15 09:37:55;;;;;;;1.05;1.02;;;;;;;14.92;59.31;100292.46;1754920;81;21153;-44
2021/04/15 09:40:46;;;;;;;0.95;0.88;;;;;;;14.81;60.20;100297.94;1754990;80;21157;-43
2021/04/15 09:43:45;;;;;;;1.90;1.17;;;;;;;14.75;60.77;100301.95;1724925;81;21137;-44
2021/04/15 09:46:39;;;;;;;0.70;0.33;;;;;;;14.63;61.13;100292.30;1755472;80;21138;-42
2021/04/15 09:50:01;;;;;;;0.68;0.68;;;;;;;14.55;61.67;100301.30;1740153;80;21173;-44
2021/04/15 09:53:05;;;;;;;0.60;0.60;;;;;;;14.58;61.67;100295.17;1779510;80;21686;-43
2021/04/15 09:56:12;;;;;;;1.27;1.17;;;;;;;14.82;63.18;100287.20;1718949;83;21157;-43
2021/04/15 09:59:17;;;;;;;0.93;0.93;;;;;;;15.21;61.35;100282.95;1883697;76;22197;-44
2021/04/15 10:01:49;;;;;;;0.30;0.30;;;;;;;15.28;59.59;100286.05;1818159;78;21071;-44
2021/04/15 10:04:37;;;;;;;0.37;0.37;;;;;;;15.15;58.67;100286.38;1810448;78;21151;-44
2021/04/15 10:07:32;;;;;;;0.55;0.45;;;;;;;14.99;58.98;100290.09;1807628;78;21107;-45
2021/04/15 10:10:42;;;;;;;0.82;0.78;;;;;;;14.89;59.69;100290.91;1797573;78;21154;-44
2021/04/15 10:13:45;;;;;;;0.80;0.80;;;;;;;14.92;59.90;100286.15;1804237;78;21118;-44
2021/04/15 10:16:51;;;;;;;1.50;0.40;;;;;;;15.02;60.70;100282.58;1744776;81;21153;-43
2021/04/15 10:19:57;;;;;;;0.72;0.72;;;;;;;15.15;59.68;100281.45;1798210;78;21154;-43
2021/04/15 10:23:03;;;;;;;1.10;1.02;;;;;;;15.24;58.77;100279.00;1822147;78;21593;-43
2021/04/15 10:25:49;;;;;;;2.12;0.93;;;;;;;15.32;58.75;100288.43;1790801;78;21164;-42
2021/04/15 10:28:41;;;;;;;0.60;0.60;;;;;;;15.37;58.14;100285.55;1786701;78;21119;-44
2021/04/15 10:31:54;;;;;;;0.68;0.53;;;;;;;15.37;57.55;100284.73;1780887;79;21110;-43
2021/04/15 10:34:44;;;;;;;0.50;0.50;;;;;;;15.38;57.78;100278.92;1793046;78;21119;-42
2021/04/15 10:37:50;;;;;;;3.90;1.42;;;;;;;15.44;57.34;100276.27;1792035;78;21134;-42
2021/04/15 10:40:51;;;;;;;1.00;0.82;;;;;;;15.41;57.46;100274.73;1783645;80;21103;-43
2021/04/15 10:43:49;;;;;;;0.50;0.50;;;;;;;15.28;56.75;100273.66;1793333;78;21129;-43
2021/04/15 10:46:46;;;;;;;3.30;0.85;;;;;;;15.34;57.95;100272.41;1800736;78;21079;-43
2021/04/15 10:49:52;;;;;;;0.65;0.60;;;;;;;15.53;58.31;100265.85;1818479;78;21513;-44
2021/04/15 10:52:42;;;;;;;2.02;1.40;;;;;;;15.80;58.73;100257.97;1790058;78;21577;-44
2021/04/15 10:55:27;;;;;;;2.15;0.65;;;;;;;16.11;55.98;100260.66;1817603;78;21575;-44
2021/04/15 10:57:55;;;;;;;1.75;1.15;;;;;;;16.29;55.50;100254.03;1785539;79;21119;-44
2021/04/15 11:00:32;;;;;;;1.77;0.93;;;;;;;16.47;55.01;100255.45;1785491;79;21140;-44
2021/04/15 11:03:19;;;;;;;0.30;0.30;;;;;;;16.57;54.44;100250.99;1790937;79;21067;-44
2021/04/15 11:05:49;;;;;;;3.02;0.88;;;;;;;16.63;54.48;100248.30;1780176;79;21157;-44
2021/04/15 11:08:26;;;;;;;1.45;1.35;;;;;;;16.55;53.82;100246.36;1741814;82;21526;-43
2021/04/15 11:11:17;;;;;;;0.78;0.78;;;;;;;16.29;53.74;100244.37;1756885;80;21110;-43
2021/04/15 11:13:47;;;;;;;0.88;0.88;;;;;;;16.06;54.39;100251.17;1782983;80;21718;-43
2021/04/15 11:16:20;;;;;;;0.57;0.57;;;;;;;15.76;54.85;100249.55;1767055;80;21130;-43
2021/04/15 11:18:50;;;;;;;3.95;3.42;;;;;;;15.62;55.14;100251.56;1726759;82;21104;-43
2021/04/15 11:21:31;;;;;;;2.42;1.30;;;;;;;15.44;55.51;100250.11;1718965;82;21138;-42
2021/04/15 11:27:05;;;;;;;0.60;0.60;;;;;;;15.14;56.22;100248.18;1826493;76;22627;-43
2021/04/15 11:29:48;;;;;;;1.17;1.07;;;;;;;14.93;57.06;100246.50;1747538;81;21155;-44
2021/04/15 11:32:31;;;;;;;3.77;0.60;;;;;;;14.79;57.30;100246.58;1754278;81;21189;-44
2021/04/15 11:35:16;;;;;;;2.70;1.30;;;;;;;14.61;57.93;100253.86;1707595;82;21484;-44
2021/04/15 11:37:47;;;;;;;1.05;1.05;;;;;;;14.51;58.30;100256.25;1733102;81;21142;-44
2021/04/15 11:40:38;;;;;;;2.95;1.45;;;;;;;14.46;58.36;100255.00;1750315;81;21718;-44
2021/04/15 11:43:35;;;;;;;1.42;1.32;;;;;;;14.42;58.87;100255.39;1692192;81;21143;-45
2021/04/15 11:46:21;;;;;;;1.70;1.05;;;;;;;14.41;58.54;100246.87;1734239;81;21765;-45
2021/04/15 11:49:09;;;;;;;1.57;1.47;;;;;;;14.33;58.71;100248.98;1749649;81;21126;-43
2021/04/15 11:51:44;;;;;;;1.30;0.35;;;;;;;14.30;58.85;100249.62;1723034;80;21153;-44
2021/04/15 11:54:15;;;;;;;0.78;0.78;;;;;;;14.26;58.90;100246.66;1739582;81;21114;-43
2021/04/15 11:56:46;;;;;;;1.00;0.25;;;;;;;14.20;59.77;100247.34;1753780;81;21122;-43
2021/04/15 11:59:27;;;;;;;0.75;0.57;;;;;;;14.03;60.19;100241.67;1758460;79;21219;-43
2021/04/15 12:01:57;;;;;;;1.95;0.82;;;;;;;13.83;60.74;100242.11;1747191;81;21532;-43
2021/04/15 12:04:28;;;;;;;0.30;0.30;;;;;;;13.68;61.36;100238.55;1702179;79;21122;-44
2021/04/15 12:07:03;;;;;;;0.70;0.42;;;;;;;13.56;61.96;100236.86;1744140;81;21118;-43
2021/04/15 12:09:35;;;;;;;0.45;0.45;;;;;;;13.53;62.50;100236.91;1747110;81;21426;-43
2021/04/15 12:12:18;;;;;;;1.27;0.85;;;;;;;13.55;63.20;100236.05;1738608;81;21453;-43
2021/04/15 12:14:48;;;;;;;1.17;0.93;;;;;;;13.56;63.55;100234.12;1747525;79;21027;-43
2021/04/15 12:17:30;;;;;;;0.40;0.37;;;;;;;13.55;63.95;100232.50;1703717;80;21189;-43
2021/04/15 12:20:30;;;;;;;2.20;0.85;;;;;;;13.51;64.42;100232.84;1743750;79;21125;-43
2021/04/15 12:23:22;;;;;;;0.55;0.55;;;;;;;13.50;64.71;100235.31;1765792;79;21142;-43
2021/04/15 12:26:02;;;;;;;1.47;0.45;;;;;;;13.50;65.42;100231.20;1751720;79;21565;-44
2021/04/15 12:29:15;;;;;;;1.02;1.02;;;;;;;13.57;65.24;100228.06;1753952;81;21158;-44
2021/04/15 12:31:46;;;;;;;0.57;0.30;;;;;;;13.61;65.14;100224.41;1696183;83;21649;-44
2021/04/15 12:34:42;;;;;;;0.30;0.28;;;;;;;13.63;65.16;100223.55;1702316;83;21562;-44
2021/04/15 12:37:36;;;;;;;1.98;0.70;;;;;;;13.65;64.97;100225.97;1746050;81;21154;-43
2021/04/15 12:40:16;;;;;;;1.60;0.98;;;;;;;13.59;65.36;100225.27;1745670;81;21209;-43
2021/04/15 12:42:43;;;;;;;0.80;0.80;;;;;;;13.55;65.50;100225.08;1732995;81;21543;-43
2021/04/15 12:45:17;;;;;;;1.22;1.12;;;;;;;13.50;65.55;100222.44;1701670;82;21149;-43